Time;durP1;ratioP1;P1;durP2;ratioP2;P2;SDS_P1;SDS_P2;PMS_P1;PMS_P2;Temp;Humidity;BMP_temperature;BMP_pressure;BME280_temperature;BME280_humidity;BME280_pressure;Samples;Min_cycle;Max_cycle;Signal;HPM_P1;HPM_P2
2022/05/23 00:00:07;;;;;;;5.25;1.50;;;;;23.20;100702.00;;;;5083568;28;20233;-78
2022/05/23 00:02:38;;;;;;;1.65;0.82;;;;;23.10;100697.00;;;;5090154;28;20213;-77
2022/05/23 00:05:08;;;;;;;4.22;0.90;;;;;23.10;100691.00;;;;5086029;28;20656;-78
2022/05/23 00:07:38;;;;;;;2.30;1.30;;;;;23.10;100689.00;;;;5073718;28;20196;-78
2022/05/23 00:10:07;;;;;;;6.43;1.20;;;;;23.10;100681.00;;;;5091845;28;20672;-77
2022/05/23 00:12:36;;;;;;;1.02;0.90;;;;;23.10;100676.00;;;;5089701;28;20198;-78
2022/05/23 00:15:03;;;;;;;1.65;0.88;;;;;23.10;100673.00;;;;5079584;28;20191;-78
2022/05/23 00:17:31;;;;;;;1.05;0.82;;;;;23.10;100673.00;;;;5076606;28;20217;-78
2022/05/23 00:20:00;;;;;;;3.15;1.23;;;;;23.00;100672.00;;;;5091741;28;20225;-78
2022/05/23 00:22:27;;;;;;;1.58;1.00;;;;;23.10;100663.00;;;;5086054;28;20963;-78
2022/05/23 00:24:55;;;;;;;3.28;1.15;;;;;23.10;100659.00;;;;5079602;28;20206;-78
2022/05/23 00:27:23;;;;;;;2.83;0.98;;;;;23.00;100664.00;;;;5070103;28;20700;-78
2022/05/23 00:29:51;;;;;;;3.17;1.50;;;;;23.00;100654.00;;;;5076190;28;20243;-78
2022/05/23 00:35:21;;;;;;;3.25;0.95;;;;;23.00;100643.00;;;;5084200;28;20339;-78
2022/05/23 00:37:51;;;;;;;1.88;0.95;;;;;23.00;100634.00;;;;5072336;28;20195;-78
2022/05/23 00:40:43;;;;;;;2.47;1.08;;;;;22.80;100629.00;;;;5079384;28;20230;-78
2022/05/23 00:43:17;;;;;;;3.85;1.10;;;;;22.90;100623.00;;;;5066072;28;20192;-77
2022/05/23 00:45:47;;;;;;;4.22;1.02;;;;;22.90;100611.00;;;;5083899;28;20197;-77
2022/05/23 00:48:17;;;;;;;3.53;1.23;;;;;22.90;100601.00;;;;5089173;28;20194;-78
2022/05/23 00:50:49;;;;;;;1.50;0.90;;;;;22.90;100605.00;;;;5085845;28;20207;-78
2022/05/23 00:53:19;;;;;;;2.25;1.10;;;;;22.90;100600.00;;;;5088447;28;20213;-78
2022/05/23 00:55:48;;;;;;;2.53;1.15;;;;;22.80;100597.00;;;;5068216;28;20199;-77
2022/05/23 00:58:21;;;;;;;2.25;0.85;;;;;22.80;100591.00;;;;5070696;28;20306;-78
2022/05/23 01:00:49;;;;;;;1.77;1.00;;;;;22.80;100589.00;;;;5082430;28;20225;-78
2022/05/23 01:03:19;;;;;;;4.13;1.10;;;;;22.80;100589.00;;;;5094157;28;20627;-78
2022/05/23 01:05:51;;;;;;;4.10;1.55;;;;;22.80;100586.00;;;;5085572;28;20195;-78
2022/05/23 01:08:19;;;;;;;2.10;1.15;;;;;22.80;100586.00;;;;5076122;28;20198;-78
2022/05/23 01:10:47;;;;;;;1.55;1.02;;;;;22.80;100586.00;;;;5091413;28;20213;-78
2022/05/23 01:13:15;;;;;;;2.00;1.27;;;;;22.70;100594.00;;;;5089267;28;20202;-78
2022/05/23 01:15:47;;;;;;;2.30;1.10;;;;;22.70;100594.00;;;;5090741;28;20199;-77
2022/05/23 01:18:15;;;;;;;4.60;1.63;;;;;22.70;100594.00;;;;5078637;28;20195;-77
2022/05/23 01:20:44;;;;;;;1.98;1.02;;;;;22.70;100582.00;;;;5088244;28;20297;-78
2022/05/23 01:23:24;;;;;;;3.08;1.02;;;;;22.60;100583.00;;;;5073577;28;20206;-78
2022/05/23 01:25:52;;;;;;;2.40;0.80;;;;;22.60;100581.00;;;;5078677;28;20194;-77
2022/05/23 01:28:20;;;;;;;2.63;0.80;;;;;22.70;100598.00;;;;5090842;28;20198;-78
2022/05/23 01:30:48;;;;;;;1.23;1.00;;;;;22.60;100589.00;;;;5090201;28;20617;-77
2022/05/23 01:33:16;;;;;;;2.80;0.95;;;;;22.60;100581.00;;;;5081218;28;20251;-78
2022/05/23 01:35:43;;;;;;;4.13;1.20;;;;;22.60;100588.00;;;;5083856;28;20198;-77
2022/05/23 01:38:11;;;;;;;2.70;1.30;;;;;22.60;100586.00;;;;5080154;28;20197;-77
2022/05/23 01:40:38;;;;;;;1.67;1.25;;;;;22.50;100582.00;;;;5084567;28;20226;-77
2022/05/23 01:43:07;;;;;;;3.60;1.17;;;;;22.50;100586.00;;;;5088573;28;20255;-78
2022/05/23 01:45:37;;;;;;;1.27;0.98;;;;;22.50;100582.00;;;;5087289;28;20202;-77
2022/05/23 01:48:06;;;;;;;1.30;0.80;;;;;22.50;100581.00;;;;5082554;28;20220;-78
2022/05/23 01:50:34;;;;;;;3.40;1.13;;;;;22.50;100578.00;;;;5073008;28;20207;-77
2022/05/23 01:53:01;;;;;;;2.88;0.90;;;;;22.50;100578.00;;;;5069754;28;20195;-77
2022/05/23 01:55:29;;;;;;;2.25;0.90;;;;;22.40;100581.00;;;;5077991;28;20201;-77
2022/05/23 01:57:56;;;;;;;2.28;1.15;;;;;22.40;100586.00;;;;5088871;28;20459;-78
2022/05/23 02:03:10;;;;;;;2.03;1.10;;;;;22.40;100575.00;;;;5069930;28;20209;-78
2022/05/23 02:05:37;;;;;;;1.70;0.85;;;;;22.30;100572.00;;;;5082353;28;20198;-78
2022/05/23 02:08:05;;;;;;;4.40;1.10;;;;;22.30;100574.00;;;;5088504;28;20210;-78
2022/05/23 02:10:32;;;;;;;1.13;0.82;;;;;22.30;100575.00;;;;5069106;28;20998;-78
2022/05/23 02:13:02;;;;;;;5.43;1.15;;;;;22.30;100580.00;;;;5079159;28;20194;-78
2022/05/23 02:15:32;;;;;;;2.33;1.00;;;;;22.20;100572.00;;;;5080793;28;20681;-77
2022/05/23 02:18:00;;;;;;;2.63;0.93;;;;;22.20;100567.00;;;;5085407;28;20209;-77
2022/05/23 02:20:28;;;;;;;2.80;1.52;;;;;22.20;100570.00;;;;5087167;28;20240;-78
2022/05/23 02:22:56;;;;;;;5.03;1.30;;;;;22.20;100564.00;;;;5084091;28;20195;-77
2022/05/23 02:25:24;;;;;;;5.25;1.02;;;;;22.20;100560.00;;;;5088368;28;20195;-77
2022/05/23 02:27:52;;;;;;;4.82;1.25;;;;;22.10;100559.00;;;;5088583;28;20271;-77
2022/05/23 02:30:20;;;;;;;3.10;1.13;;;;;22.10;100556.00;;;;5089106;28;20209;-77
2022/05/23 02:32:49;;;;;;;2.90;1.40;;;;;22.10;100544.00;;;;5079818;28;20249;-77
2022/05/23 02:35:19;;;;;;;1.90;1.20;;;;;22.10;100551.00;;;;5082444;28;20199;-77
2022/05/23 02:37:46;;;;;;;2.95;1.27;;;;;22.10;100550.00;;;;5081096;28;20241;-77
2022/05/23 02:40:14;;;;;;;1.40;1.30;;;;;22.00;100545.00;;;;5071362;28;20221;-77
2022/05/23 02:42:41;;;;;;;3.00;1.10;;;;;22.00;100544.00;;;;5075152;28;20198;-77
2022/05/23 02:45:10;;;;;;;1.80;1.10;;;;;22.00;100531.00;;;;5077754;28;20202;-77
2022/05/23 02:47:38;;;;;;;2.25;1.23;;;;;22.00;100535.00;;;;5082604;28;20206;-77
2022/05/23 02:50:09;;;;;;;2.20;1.30;;;;;21.90;100526.00;;;;5076080;28;20194;-78
2022/05/23 02:52:40;;;;;;;1.33;1.20;;;;;21.90;100525.00;;;;5079731;28;20222;-77
2022/05/23 02:55:09;;;;;;;2.70;1.20;;;;;21.90;100512.00;;;;5088129;28;20848;-77
2022/05/23 02:57:37;;;;;;;2.72;1.20;;;;;21.90;100505.00;;;;5084557;28;20281;-78
2022/05/23 03:00:06;;;;;;;1.73;1.40;;;;;21.80;100504.00;;;;5087113;28;20215;-77
2022/05/23 03:05:20;;;;;;;1.40;1.20;;;;;21.80;100493.00;;;;5087080;28;20201;-77
2022/05/23 03:07:47;;;;;;;3.63;1.50;;;;;21.80;100486.00;;;;5087479;28;20202;-77
2022/05/23 03:10:14;;;;;;;2.35;1.20;;;;;21.70;100479.00;;;;5088402;28;20672;-77
2022/05/23 03:12:42;;;;;;;4.93;1.42;;;;;21.70;100475.00;;;;5075840;28;20203;-77
2022/05/23 03:15:10;;;;;;;2.03;1.42;;;;;21.70;100474.00;;;;5082912;28;20281;-77
2022/05/23 03:17:37;;;;;;;3.83;1.58;;;;;21.70;100465.00;;;;5075844;28;20244;-78
2022/05/23 03:20:06;;;;;;;1.80;1.30;;;;;21.70;100467.00;;;;5087788;28;20229;-78
2022/05/23 03:28:05;;;;;;;3.25;1.52;;;;;21.60;100435.00;;;;5070117;28;20290;-78
2022/05/23 03:30:33;;;;;;;2.72;1.35;;;;;21.60;100435.00;;;;5068364;28;20202;-78
2022/05/23 03:33:00;;;;;;;2.47;1.35;;;;;21.60;100434.00;;;;5069521;28;20210;-77
2022/05/23 03:35:29;;;;;;;2.20;1.45;;;;;21.60;100427.00;;;;5080201;28;20194;-78
2022/05/23 03:37:58;;;;;;;2.88;1.40;;;;;21.60;100423.00;;;;5077961;28;20308;-77
2022/05/23 03:40:26;;;;;;;3.97;1.50;;;;;21.60;100410.00;;;;5086537;28;20218;-77
2022/05/23 03:42:54;;;;;;;2.03;1.60;;;;;21.60;100414.00;;;;5077609;28;20198;-78
2022/05/23 03:45:22;;;;;;;2.58;1.50;;;;;21.50;100408.00;;;;5072277;28;20186;-78
2022/05/23 03:47:50;;;;;;;4.95;1.75;;;;;21.50;100399.00;;;;5083760;28;20202;-78
2022/05/23 03:50:19;;;;;;;3.10;1.70;;;;;21.50;100388.00;;;;5087017;28;20214;-77
2022/05/23 03:52:46;;;;;;;4.03;1.70;;;;;21.50;100385.00;;;;5087274;28;20198;-78
2022/05/23 03:55:15;;;;;;;4.75;1.88;;;;;21.50;100381.00;;;;5072549;28;20202;-78
2022/05/23 03:57:43;;;;;;;2.70;1.77;;;;;21.50;100372.00;;;;5075361;28;20206;-77
2022/05/23 04:00:13;;;;;;;3.90;1.80;;;;;21.50;100374.00;;;;5084338;28;20222;-77
2022/05/23 04:02:40;;;;;;;2.50;1.63;;;;;21.50;100369.00;;;;5084206;28;20321;-78
2022/05/23 04:05:12;;;;;;;3.05;1.85;;;;;21.40;100364.00;;;;5087769;28;20660;-77
2022/05/23 04:07:40;;;;;;;4.25;1.80;;;;;21.40;100358.00;;;;5088028;28;20198;-78
2022/05/23 04:10:10;;;;;;;3.45;2.00;;;;;21.40;100356.00;;;;5082783;28;20209;-78
2022/05/23 04:12:39;;;;;;;2.17;1.60;;;;;21.40;100354.00;;;;5087984;28;20198;-78
2022/05/23 04:15:08;;;;;;;2.65;2.05;;;;;21.40;100350.00;;;;5087617;28;20198;-78
2022/05/23 04:17:36;;;;;;;3.67;1.95;;;;;21.40;100346.00;;;;5073498;28;20224;-77
2022/05/23 04:20:04;;;;;;;2.92;1.90;;;;;21.40;100338.00;;;;5081015;28;20198;-77
2022/05/23 04:22:32;;;;;;;3.00;1.70;;;;;21.40;100351.00;;;;5085215;28;20198;-78
2022/05/23 04:24:59;;;;;;;3.15;1.77;;;;;21.40;100348.00;;;;5086386;28;20289;-77
2022/05/23 04:27:27;;;;;;;2.53;1.67;;;;;21.40;100349.00;;;;5086199;28;20199;-77
2022/05/23 04:29:55;;;;;;;4.38;1.80;;;;;21.40;100343.00;;;;5088076;28;20202;-78
2022/05/23 04:35:14;;;;;;;3.45;1.88;;;;;21.40;100353.00;;;;5074035;28;20202;-77
2022/05/23 04:37:44;;;;;;;3.15;1.65;;;;;21.40;100348.00;;;;5086385;28;20198;-77
2022/05/23 04:40:14;;;;;;;3.50;2.03;;;;;21.40;100350.00;;;;5091721;28;20218;-78
2022/05/23 04:42:41;;;;;;;4.35;1.45;;;;;21.40;100343.00;;;;5080734;28;20194;-77
2022/05/23 04:45:13;;;;;;;4.15;2.05;;;;;21.40;100338.00;;;;5072421;28;20198;-77
2022/05/23 04:50:25;;;;;;;3.22;1.55;;;;;21.50;100342.00;;;;5090566;28;20202;-78
2022/05/23 04:52:54;;;;;;;1.80;1.70;;;;;21.50;100339.00;;;;5073952;28;20210;-77
2022/05/23 04:55:22;;;;;;;2.78;2.10;;;;;21.50;100333.00;;;;5072686;28;20593;-78
2022/05/23 04:57:50;;;;;;;4.63;1.90;;;;;21.50;100316.00;;;;5087455;28;20209;-79
2022/05/23 05:00:21;;;;;;;2.65;1.95;;;;;21.50;100321.00;;;;5074431;28;20712;-80
2022/05/23 05:02:50;;;;;;;2.97;1.88;;;;;21.60;100317.00;;;;5089023;28;21067;-80
2022/05/23 05:05:19;;;;;;;4.75;2.47;;;;;21.60;100310.00;;;;5086351;28;20186;-79
2022/05/23 05:07:46;;;;;;;3.05;2.20;;;;;21.60;100312.00;;;;5084572;28;20263;-79
2022/05/23 05:10:15;;;;;;;3.88;2.30;;;;;21.60;100313.00;;;;5090256;28;20205;-79
2022/05/23 05:12:42;;;;;;;2.10;1.85;;;;;21.70;100302.00;;;;5086390;28;20202;-81
2022/05/23 05:15:10;;;;;;;3.22;2.00;;;;;21.70;100303.00;;;;5077850;28;20194;-81
2022/05/23 05:17:39;;;;;;;5.00;2.10;;;;;21.70;100301.00;;;;5075661;28;20206;-81
2022/05/23 05:20:08;;;;;;;3.40;2.33;;;;;21.80;100296.00;;;;5087520;28;20216;-81
2022/05/23 05:22:36;;;;;;;3.63;2.42;;;;;21.80;100293.00;;;;5090248;28;20194;-81
2022/05/23 05:25:04;;;;;;;2.92;2.10;;;;;21.80;100289.00;;;;5073633;28;20223;-82
2022/05/23 05:27:31;;;;;;;7.18;2.30;;;;;21.90;100281.00;;;;5085224;28;20211;-81
2022/05/23 05:29:59;;;;;;;3.25;2.30;;;;;21.90;100285.00;;;;5076328;28;20211;-81
2022/05/23 05:32:40;;;;;;;2.58;2.38;;;;;21.80;100280.00;;;;5070734;28;20210;-81
2022/05/23 05:35:15;;;;;;;2.78;2.35;;;;;22.00;100278.00;;;;5077266;28;20194;-82
2022/05/23 05:37:47;;;;;;;4.93;2.13;;;;;22.00;100278.00;;;;5076812;28;20195;-81
2022/05/23 05:40:18;;;;;;;3.03;2.15;;;;;22.10;100268.00;;;;5073329;28;20945;-81
2022/05/23 05:42:49;;;;;;;4.40;2.45;;;;;22.10;100272.00;;;;5077319;28;20195;-80
2022/05/23 05:45:23;;;;;;;4.60;2.53;;;;;22.20;100276.00;;;;5076931;28;20206;-80
2022/05/23 05:47:52;;;;;;;4.78;2.33;;;;;22.20;100274.00;;;;5070678;28;20574;-80
2022/05/23 05:50:25;;;;;;;2.70;2.00;;;;;22.30;100268.00;;;;5089796;28;20660;-80
2022/05/23 05:52:54;;;;;;;5.93;2.45;;;;;22.40;100257.00;;;;5090154;28;20198;-80
2022/05/23 05:55:22;;;;;;;3.40;2.30;;;;;22.40;100251.00;;;;5083668;28;20191;-80
2022/05/23 05:57:49;;;;;;;3.25;2.17;;;;;22.50;100248.00;;;;5088948;28;20687;-81
2022/05/23 06:00:17;;;;;;;4.32;2.42;;;;;22.50;100245.00;;;;5086766;28;20202;-81
2022/05/23 06:02:45;;;;;;;2.97;2.55;;;;;22.60;100240.00;;;;5087023;28;20205;-81
2022/05/23 06:05:14;;;;;;;3.88;2.10;;;;;22.60;100240.00;;;;5086522;28;20214;-81
2022/05/23 06:13:10;;;;;;;3.13;2.47;;;;;22.80;100237.00;;;;5070635;28;20197;-80
2022/05/23 06:15:38;;;;;;;5.15;2.35;;;;;22.90;100237.00;;;;5076669;28;20997;-80
2022/05/23 06:18:05;;;;;;;3.08;2.38;;;;;23.00;100237.00;;;;5079577;28;20236;-80
2022/05/23 06:20:34;;;;;;;4.15;2.92;;;;;23.00;100236.00;;;;5071657;28;20668;-80
2022/05/23 06:23:02;;;;;;;4.28;2.80;;;;;23.10;100239.00;;;;5073505;28;20213;-80
2022/05/23 06:25:30;;;;;;;2.60;2.03;;;;;23.20;100236.00;;;;5082735;28;20199;-81
2022/05/23 06:27:57;;;;;;;3.58;2.53;;;;;23.30;100238.00;;;;5071079;28;20210;-81
2022/05/23 06:30:27;;;;;;;2.83;2.42;;;;;23.30;100230.00;;;;5087627;28;20205;-80
2022/05/23 06:32:55;;;;;;;3.08;2.78;;;;;23.40;100229.00;;;;5086635;28;20214;-80
2022/05/23 06:35:25;;;;;;;3.72;2.50;;;;;23.40;100229.00;;;;5086596;28;20198;-80
2022/05/23 06:37:53;;;;;;;3.65;2.78;;;;;23.50;100230.00;;;;5089339;28;20198;-82
2022/05/23 06:40:20;;;;;;;3.42;2.65;;;;;23.50;100225.00;;;;5083780;28;20194;-80
2022/05/23 06:42:48;;;;;;;5.45;2.45;;;;;23.60;100219.00;;;;5083589;28;20223;-80
2022/05/23 06:45:15;;;;;;;3.20;2.85;;;;;23.70;100213.00;;;;5079440;28;20199;-80
2022/05/23 06:47:43;;;;;;;5.10;2.92;;;;;23.70;100212.00;;;;5086617;28;20190;-80
2022/05/23 06:50:11;;;;;;;7.93;3.70;;;;;23.80;100205.00;;;;5072500;28;20206;-80
2022/05/23 06:52:39;;;;;;;7.05;3.25;;;;;23.90;100200.00;;;;5077190;28;20206;-80
2022/05/23 06:55:09;;;;;;;3.67;2.75;;;;;23.90;100197.00;;;;5086501;28;20669;-80
2022/05/23 06:57:36;;;;;;;6.68;2.97;;;;;24.00;100202.00;;;;5084278;28;20198;-80
2022/05/23 07:00:05;;;;;;;4.05;3.03;;;;;24.10;100205.00;;;;5077479;28;20322;-80
2022/05/23 07:02:32;;;;;;;4.85;3.30;;;;;24.20;100193.00;;;;5069779;28;20222;-81
2022/05/23 07:13:20;;;;;;;3.17;2.80;;;;;24.40;100181.00;;;;5064621;28;20205;-79
2022/05/23 07:15:50;;;;;;;5.88;2.60;;;;;24.40;100182.00;;;;5066874;28;20290;-79
2022/05/23 07:18:19;;;;;;;4.20;2.47;;;;;24.50;100168.00;;;;5063725;28;20668;-80
2022/05/23 07:20:47;;;;;;;5.07;2.92;;;;;24.60;100164.00;;;;5064574;28;20207;-78
2022/05/23 07:23:14;;;;;;;3.42;2.30;;;;;24.60;100173.00;;;;5063683;28;20207;-78
2022/05/23 07:25:43;;;;;;;4.43;2.33;;;;;24.70;100172.00;;;;5075282;28;20277;-78
2022/05/23 07:28:10;;;;;;;4.03;2.45;;;;;24.80;100177.00;;;;5085957;28;20205;-78
2022/05/23 07:30:38;;;;;;;5.22;2.85;;;;;24.90;100184.00;;;;5074904;28;20665;-79
2022/05/23 07:33:06;;;;;;;4.78;2.60;;;;;24.90;100186.00;;;;5076106;28;20190;-79
2022/05/23 07:35:33;;;;;;;6.22;2.92;;;;;25.00;100184.00;;;;5083365;28;20619;-79
2022/05/23 07:38:00;;;;;;;3.13;2.65;;;;;25.00;100180.00;;;;5081475;28;20213;-79
2022/05/23 07:40:27;;;;;;;6.28;3.08;;;;;25.10;100165.00;;;;5086619;28;20226;-78
2022/05/23 07:42:56;;;;;;;4.20;3.08;;;;;25.10;100156.00;;;;5072790;28;20604;-79
2022/05/23 07:45:23;;;;;;;4.30;3.35;;;;;25.10;100158.00;;;;5084313;28;20194;-79
2022/05/23 07:47:50;;;;;;;4.00;3.22;;;;;25.20;100160.00;;;;5086253;28;20660;-79
2022/05/23 07:50:19;;;;;;;3.55;2.90;;;;;25.20;100161.00;;;;5085167;28;20259;-79
2022/05/23 08:00:58;;;;;;;5.65;3.67;;;;;25.30;100155.00;;;;5073125;28;20205;-78
2022/05/23 08:03:26;;;;;;;4.47;3.50;;;;;25.40;100146.00;;;;5070637;28;20728;-79
2022/05/23 08:05:54;;;;;;;6.45;3.65;;;;;25.40;100142.00;;;;5075904;28;20199;-80
2022/05/23 08:08:21;;;;;;;6.43;3.65;;;;;25.50;100142.00;;;;5076838;28;20694;-79
2022/05/23 08:10:49;;;;;;;3.63;3.28;;;;;25.50;100140.00;;;;5088948;28;20264;-79
2022/05/23 08:13:17;;;;;;;4.53;3.65;;;;;25.50;100144.00;;;;5085563;28;20198;-79
2022/05/23 08:15:44;;;;;;;3.78;3.47;;;;;25.50;100135.00;;;;5074702;28;20198;-82
2022/05/23 08:18:15;;;;;;;4.78;3.55;;;;;25.60;100130.00;;;;5082369;28;20213;-79
2022/05/23 08:20:43;;;;;;;4.40;4.00;;;;;25.70;100129.00;;;;5083936;28;20195;-80
2022/05/23 08:23:10;;;;;;;4.55;3.72;;;;;25.80;100135.00;;;;5077092;28;20233;-80
2022/05/23 08:25:38;;;;;;;6.72;3.55;;;;;25.80;100130.00;;;;5083171;28;20190;-80
2022/05/23 08:28:05;;;;;;;6.68;3.83;;;;;25.90;100131.00;;;;5083915;28;20259;-80
2022/05/23 08:30:34;;;;;;;5.25;3.20;;;;;26.00;100125.00;;;;5080933;28;20199;-79
2022/05/23 08:33:01;;;;;;;6.40;3.63;;;;;26.00;100121.00;;;;5078603;28;20660;-82
2022/05/23 08:35:29;;;;;;;4.53;3.72;;;;;26.10;100116.00;;;;5084100;28;20199;-81
2022/05/23 08:37:56;;;;;;;3.70;3.40;;;;;26.20;100116.00;;;;5086284;28;20206;-83
2022/05/23 08:40:33;;;;;;;6.28;3.72;;;;;26.20;100110.00;;;;5084445;28;20245;-79
2022/05/23 08:43:06;;;;;;;4.70;3.17;;;;;26.30;100117.00;;;;5082869;28;20591;-81
2022/05/23 08:45:39;;;;;;;6.35;3.03;;;;;26.40;100108.00;;;;5074276;28;20204;-81
2022/05/23 08:48:13;;;;;;;5.20;3.30;;;;;26.50;100097.00;;;;5077268;28;20244;-81
2022/05/23 08:50:53;;;;;;;4.15;2.67;;;;;26.50;100101.00;;;;5080692;28;20199;-80
2022/05/23 08:53:25;;;;;;;7.50;2.97;;;;;26.60;100105.00;;;;5073176;28;20672;-80
2022/05/23 08:55:56;;;;;;;3.53;2.72;;;;;26.70;100104.00;;;;5082678;28;20198;-80
2022/05/23 08:58:30;;;;;;;5.50;2.97;;;;;26.80;100098.00;;;;5075081;28;20223;-80
2022/05/23 09:01:05;;;;;;;4.63;3.60;;;;;26.90;100094.00;;;;5066849;28;20197;-80
2022/05/23 09:03:37;;;;;;;4.45;2.58;;;;;27.00;100085.00;;;;5071008;28;20245;-79
2022/05/23 09:06:13;;;;;;;6.18;2.83;;;;;27.10;100092.00;;;;5077646;28;20206;-80
2022/05/23 09:08:50;;;;;;;4.35;2.55;;;;;27.30;100083.00;;;;5082259;28;20202;-79
2022/05/23 09:11:25;;;;;;;5.53;2.88;;;;;27.40;100079.00;;;;5081818;28;20224;-80
2022/05/23 09:13:52;;;;;;;3.38;3.05;;;;;27.50;100070.00;;;;5081514;28;20755;-80
2022/05/23 09:16:22;;;;;;;5.80;2.75;;;;;27.50;100075.00;;;;5083527;28;20193;-81
2022/05/23 09:18:57;;;;;;;3.47;2.80;;;;;27.50;100074.00;;;;5082170;28;20264;-80
2022/05/23 09:22:12;;;;;;;7.43;2.90;;;;;27.50;100082.00;;;;5082470;28;20209;-80
2022/05/23 09:24:15;;;;;;;2.88;2.47;;;;;27.50;100077.00;;;;5085304;28;20238;-80
2022/05/23 09:26:42;;;;;;;6.22;3.17;;;;;27.50;100079.00;;;;5081873;28;20284;-80
2022/05/23 09:29:09;;;;;;;3.13;2.75;;;;;27.50;100077.00;;;;5083561;28;20202;-79
2022/05/23 09:31:48;;;;;;;3.13;2.83;;;;;27.30;100077.00;;;;5083983;28;20198;-80
2022/05/23 09:34:33;;;;;;;3.65;2.70;;;;;27.20;100064.00;;;;5086152;28;20209;-80
2022/05/23 09:37:02;;;;;;;5.00;2.38;;;;;27.30;100062.00;;;;5084444;28;20222;-80
2022/05/23 09:39:30;;;;;;;7.68;3.45;;;;;27.20;100051.00;;;;5083141;28;20198;-82
2022/05/23 09:47:54;;;;;;;3.65;2.75;;;;;27.10;100036.00;;;;5083147;28;20259;-85
2022/05/23 09:50:39;;;;;;;3.92;2.72;;;;;26.90;100026.00;;;;5089599;28;20285;-83
2022/05/23 09:53:22;;;;;;;4.50;3.40;;;;;27.00;100017.00;;;;5085400;28;20198;-82
2022/05/23 09:55:50;;;;;;;4.35;2.83;;;;;26.90;100020.00;;;;5089552;28;20641;-84
2022/05/23 09:58:29;;;;;;;4.95;3.25;;;;;26.80;100017.00;;;;5089999;28;20222;-86
2022/05/23 10:01:04;;;;;;;4.63;3.25;;;;;26.90;100009.00;;;;5086046;28;20223;-86
2022/05/23 10:03:34;;;;;;;5.28;3.50;;;;;26.80;100002.00;;;;5082835;28;20324;-81
2022/05/23 10:06:08;;;;;;;5.80;3.67;;;;;26.70;100004.00;;;;5086559;28;20225;-79
2022/05/23 10:08:38;;;;;;;6.15;3.53;;;;;26.80;100002.00;;;;5079590;28;20194;-80
2022/05/23 10:11:07;;;;;;;4.40;3.25;;;;;26.80;100004.00;;;;5084616;28;20198;-79
2022/05/23 10:13:37;;;;;;;5.93;3.22;;;;;26.70;100003.00;;;;5083908;28;20194;-79
2022/05/23 10:16:14;;;;;;;5.00;3.45;;;;;26.60;100000.00;;;;5079016;28;20206;-79
2022/05/23 10:18:52;;;;;;;3.95;3.55;;;;;26.60;99981.00;;;;5089811;28;20694;-79
2022/05/23 10:21:28;;;;;;;8.40;3.58;;;;;26.60;99976.00;;;;5088351;28;20190;-79
2022/05/23 10:24:08;;;;;;;7.43;4.07;;;;;26.60;99968.00;;;;5088912;28;20222;-79
2022/05/23 10:26:43;;;;;;;4.55;3.65;;;;;26.60;99970.00;;;;5090723;28;20202;-79
2022/05/23 10:29:16;;;;;;;3.63;3.28;;;;;26.60;99970.00;;;;5090113;28;20190;-80
2022/05/23 10:31:48;;;;;;;5.95;3.92;;;;;26.50;99973.00;;;;5089394;28;20209;-79
2022/05/23 10:34:31;;;;;;;6.07;3.88;;;;;26.40;99949.00;;;;5077494;28;20313;-80
2022/05/23 10:37:02;;;;;;;7.30;4.20;;;;;26.50;99955.00;;;;5069242;28;20191;-80
2022/05/23 10:42:26;;;;;;;4.78;3.40;;;;;26.40;99947.00;;;;5074624;28;20268;-79
2022/05/23 10:45:07;;;;;;;6.15;3.47;;;;;26.40;99945.00;;;;5089621;28;20614;-80
2022/05/23 10:47:49;;;;;;;4.95;3.95;;;;;26.40;99937.00;;;;5076023;28;20214;-80
2022/05/23 10:50:24;;;;;;;5.35;3.85;;;;;26.40;99930.00;;;;5068718;28;20194;-80
2022/05/23 10:53:01;;;;;;;4.20;3.83;;;;;26.40;99921.00;;;;5080880;28;20207;-80
2022/05/23 10:55:34;;;;;;;3.80;3.50;;;;;26.50;99919.00;;;;5069397;28;20202;-79
2022/05/23 10:58:10;;;;;;;6.65;3.85;;;;;26.50;99914.00;;;;5084440;28;20201;-80
2022/05/23 11:00:46;;;;;;;6.40;3.67;;;;;26.50;99913.00;;;;5081915;28;20198;-79
2022/05/23 11:03:21;;;;;;;4.47;3.83;;;;;26.50;99906.00;;;;5089534;28;20598;-79
2022/05/23 11:05:57;;;;;;;5.47;4.03;;;;;26.60;99917.00;;;;5081716;28;20378;-79
2022/05/23 11:08:38;;;;;;;6.00;3.75;;;;;26.70;99918.00;;;;5075468;28;20205;-80
2022/05/23 11:11:14;;;;;;;5.95;3.90;;;;;26.80;99903.00;;;;5086456;28;20297;-79
2022/05/23 11:13:55;;;;;;;4.63;3.60;;;;;26.90;99893.00;;;;5085800;28;20209;-80
2022/05/23 11:16:29;;;;;;;3.92;3.58;;;;;27.00;99895.00;;;;5082164;28;20202;-80
2022/05/23 11:19:15;;;;;;;4.45;4.05;;;;;27.00;99894.00;;;;5069482;28;20747;-79
2022/05/23 11:21:48;;;;;;;5.95;3.70;;;;;27.20;99891.00;;;;5088002;28;20190;-79
2022/05/23 11:24:21;;;;;;;19.58;4.25;;;;;27.30;99890.00;;;;5085184;28;20315;-79
2022/05/23 11:26:52;;;;;;;7.22;3.58;;;;;27.50;99876.00;;;;5076544;28;20206;-81
2022/05/23 11:35:03;;;;;;;4.88;3.50;;;;;27.80;99884.00;;;;5081584;28;20280;-82
2022/05/23 11:37:44;;;;;;;4.45;3.95;;;;;27.90;99881.00;;;;5081176;28;20208;-79
2022/05/23 11:40:14;;;;;;;5.10;3.63;;;;;28.00;99862.00;;;;5086783;28;20754;-81
2022/05/23 11:42:44;;;;;;;4.93;3.83;;;;;28.10;99853.00;;;;5083938;28;20225;-81
2022/05/23 11:48:43;;;;;;;5.15;3.55;;;;;28.30;99834.00;;;;5086679;28;20209;-79
2022/05/23 11:51:17;;;;;;;5.47;3.63;;;;;28.50;99829.00;;;;5075277;28;20277;-80
2022/05/23 11:53:56;;;;;;;4.28;3.83;;;;;28.60;99822.00;;;;5071789;28;20190;-79
2022/05/23 11:56:39;;;;;;;3.88;3.33;;;;;28.70;99825.00;;;;5089497;28;20198;-79
2022/05/23 11:59:07;;;;;;;3.53;3.22;;;;;28.90;99807.00;;;;5090376;28;20221;-80
2022/05/23 12:01:36;;;;;;;5.40;3.75;;;;;29.00;99793.00;;;;5088238;28;20202;-79
2022/05/23 12:04:19;;;;;;;5.25;4.35;;;;;29.00;99795.00;;;;5073127;28;20238;-79
2022/05/23 12:06:47;;;;;;;4.93;4.38;;;;;29.20;99788.00;;;;5075108;28;20202;-79
2022/05/23 12:09:31;;;;;;;4.10;3.42;;;;;29.20;99779.00;;;;5072880;28;20198;-80
2022/05/23 12:12:50;;;;;;;6.65;4.00;;;;;29.30;99780.00;;;;5076155;28;20197;-79
2022/05/23 12:15:49;;;;;;;5.03;3.75;;;;;29.30;99763.00;;;;5086833;28;20198;-82
2022/05/23 12:18:33;;;;;;;4.18;3.20;;;;;29.20;99768.00;;;;5083046;28;20645;-80
2022/05/23 12:21:02;;;;;;;7.75;3.35;;;;;29.30;99764.00;;;;5089140;28;20206;-83
2022/05/23 12:23:38;;;;;;;3.47;3.17;;;;;29.20;99762.00;;;;5087367;28;20225;-84
2022/05/23 12:26:20;;;;;;;4.60;3.20;;;;;29.20;99767.00;;;;5087657;28;20186;-80
2022/05/23 12:28:51;;;;;;;5.20;3.03;;;;;29.20;99769.00;;;;5074915;28;20976;-80
2022/05/23 12:31:19;;;;;;;3.65;3.05;;;;;29.20;99766.00;;;;5088689;28;20206;-81
2022/05/23 12:34:10;;;;;;;5.13;3.05;;;;;29.00;99758.00;;;;5088298;28;20206;-81
2022/05/23 12:36:40;;;;;;;6.30;3.53;;;;;29.00;99745.00;;;;5087414;28;20194;-81
2022/05/23 12:39:45;;;;;;;3.22;2.90;;;;;28.90;99725.00;;;;5073559;28;20202;-81
2022/05/23 12:42:24;;;;;;;3.70;3.17;;;;;28.90;99741.00;;;;5079102;28;20222;-81
2022/05/23 12:45:49;;;;;;;4.30;3.17;;;;;28.70;99728.00;;;;5086949;28;20225;-83
2022/05/23 12:48:53;;;;;;;4.22;2.65;;;;;28.70;99728.00;;;;5083986;28;20230;-81
2022/05/23 12:51:33;;;;;;;7.03;3.38;;;;;28.70;99723.00;;;;5075652;28;20198;-80
2022/05/23 12:54:24;;;;;;;4.70;3.65;;;;;28.70;99718.00;;;;5081251;28;20230;-83
2022/05/23 12:57:21;;;;;;;3.53;2.72;;;;;28.60;99711.00;;;;5082626;28;20202;-83
2022/05/23 13:00:03;;;;;;;4.25;2.50;;;;;28.60;99713.00;;;;5090570;28;20222;-82
2022/05/23 13:02:35;;;;;;;5.45;3.30;;;;;28.70;99713.00;;;;5076403;28;20214;-82
2022/05/23 13:05:07;;;;;;;3.13;2.83;;;;;28.70;99703.00;;;;5078289;28;20253;-82
2022/05/23 13:07:43;;;;;;;3.45;3.15;;;;;28.60;99707.00;;;;5080358;28;20255;-82
2022/05/23 13:10:14;;;;;;;4.20;3.75;;;;;28.60;99692.00;;;;5087863;28;20205;-82
2022/05/23 13:12:48;;;;;;;4.57;3.17;;;;;28.50;99697.00;;;;5091262;28;20209;-85
2022/05/23 13:15:27;;;;;;;4.65;3.25;;;;;28.40;99693.00;;;;5090223;28;20224;-83
2022/05/23 13:22:05;;;;;;;3.78;2.63;;;;;28.50;99697.00;;;;5088932;28;20206;-82
2022/05/23 13:23:30;;;;;;;3.00;2.60;;;;;28.40;99690.00;;;;5086868;28;20235;-81
2022/05/23 13:25:58;;;;;;;4.80;2.50;;;;;28.30;99694.00;;;;5090499;28;20211;-82
2022/05/23 13:28:26;;;;;;;5.07;2.75;;;;;28.30;99693.00;;;;5092828;28;20205;-80
2022/05/23 13:30:56;;;;;;;6.32;3.03;;;;;28.20;99691.00;;;;5087774;28;20641;-80
2022/05/23 13:33:28;;;;;;;3.97;3.35;;;;;28.20;99692.00;;;;5094912;28;20551;-80